首页
METAR-TAF:

METAR-TAF

机场 :

Gillette, 怀俄明州, 美国

纬度: 44-20-22N, 经度: 105-32-31W, 海拔: 1330米

当前天气观测

该预报发布于16分钟前的08:53 UTC
风速9节,风向
温度 13°C
湿度 94%
气压 1017 hPa
能見度: 16.1公里
天空无云

METAR: KGCC 160853Z AUTO 17009KT 10SM CLR 13/12 A3003 RMK AO2 SLP123 T01330117 58020

时间: 03:09 (09:09 UTC)

预报

该预报发布于3小时和39分钟前的05:30 UTC
预报有效从16日的 06点(UTC)到 17日的 06点(UTC)
风速8节,风向东北
能見度: 10公里
散云层高于9000英尺
从 16日的 0700点(UTC)
风速8节,风向
能見度: 10公里
散云层高于15000英尺
从 16日的 2000点(UTC)
风速12节,风向东北
能見度: 10公里
多云层高于5000英尺, 积雨云.
附近有雷暴

TAF: KGCC 160530Z 1606/1706 04008KT P6SM SCT090 FM160700 18008KT P6SM SCT150 FM162000 04012KT P6SM VCTS BKN050CB

超过4000个机场的气象观测和天气预报(METAR&TAF报告)。

可查询的气象台以黄色和红色小点在地图上表示。

将鼠标移到小点上方,可查看气象台名称。

然后点击查看天气观测和预报。

如需切换地图:点击带黑十字的绿色按钮放大地图;点击带横线的绿色按钮缩小地图;或者点击绿色箭头查看邻近地区的地图。


METAR-TAF: